Terminal Aerodrome Forecast
Issued by NWS

Home | Current Version | Previous Version | Text Only | Print | Product List | Glossary On
Versions: 1 2 3 4 5 6 7 8 9 10 11 12 13 14 15 16 17 18 19 20 21
000
FTUS44 KLZK 260500
TAFBPK
TAF
KBPK 260534Z 2606/2706 28009KT P6SM SKC
     FM260800 32004KT P6SM OVC012
      TEMPO 2610/2614 5SM BR OVC008
     FM261600 07012KT P6SM BKN008 OVC020
     FM261900 07006KT P6SM BKN030=

USA.gov is the U.S. government's official web portal to all federal, state and local government web resources and services.